Time,TemperatureF,DewpointF,PressureIn,WindDirection,WindDirectionDegrees,WindSpeedMPH,WindSpeedGustMPH,Humidity,HourlyPrecipIn,Conditions,Clouds,dailyrainin,SolarRadiationWatts/m^2,SoftwareType,DateUTC
2013-01-23 00:10:00,16.3,-3.0,30.11,South,183,4.0,10.0,43,0.00,,,0.00,0,weatherlink.com 1.10,2013-01-23 05:10:00,
2013-01-23 00:25:00,16.1,-3.0,30.11,SSW,204,6.0,7.0,42,0.00,,,0.00,0,weatherlink.com 1.10,2013-01-23 05:25:00,
2013-01-23 00:40:00,15.8,-3.0,30.11,SSW,195,3.0,8.0,43,0.00,,,0.00,0,weatherlink.com 1.10,2013-01-23 05:40:00,
2013-01-23 00:55:00,15.4,-4.0,30.11,SSW,210,5.0,7.0,43,0.00,,,0.00,0,weatherlink.com 1.10,2013-01-23 05:55:00,
2013-01-23 01:10:00,15.1,-4.0,30.12,SW,217,2.0,9.0,42,0.00,,,0.00,0,weatherlink.com 1.10,2013-01-23 06:10:00,
2013-01-23 01:25:00,14.9,-4.0,30.12,SSW,204,7.0,9.0,43,0.00,,,0.00,0,weatherlink.com 1.10,2013-01-23 06:25:00,
2013-01-23 01:40:00,14.8,-4.0,30.13,SSW,212,4.0,8.0,44,0.00,,,0.00,0,weatherlink.com 1.10,2013-01-23 06:40:00,
2013-01-23 01:55:00,14.2,-4.0,30.14,SSW,196,0.0,3.0,45,0.00,,,0.00,0,weatherlink.com 1.10,2013-01-23 06:55:00,
2013-01-23 02:11:00,14.0,-3.0,30.14,South,183,2.0,6.0,48,0.00,,,0.00,0,weatherlink.com 1.10,2013-01-23 07:11:00,
2013-01-23 02:41:00,13.7,-3.0,30.15,SSW,194,4.0,4.0,48,0.00,,,0.00,0,weatherlink.com 1.10,2013-01-23 07:41:00,
2013-01-23 02:57:00,13.7,-3.0,30.15,South,180,2.0,6.0,47,0.00,,,0.00,0,weatherlink.com 1.10,2013-01-23 07:57:00,
2013-01-23 03:11:00,13.7,-2.0,30.14,SW,219,0.0,5.0,49,0.00,,,0.00,0,weatherlink.com 1.10,2013-01-23 08:11:00,
2013-01-23 03:26:00,13.4,-3.0,30.15,South,184,1.0,6.0,49,0.00,,,0.00,0,weatherlink.com 1.10,2013-01-23 08:26:00,
2013-01-23 03:41:00,13.2,-2.0,30.15,SSE,165,3.0,5.0,50,0.00,,,0.00,0,weatherlink.com 1.10,2013-01-23 08:41:00,
2013-01-23 03:56:00,12.9,-2.0,30.15,South,185,2.0,3.0,51,0.00,,,0.00,0,weatherlink.com 1.10,2013-01-23 08:56:00,
2013-01-23 04:11:00,12.7,-2.0,30.15,South,186,2.0,5.0,51,0.00,,,0.00,0,weatherlink.com 1.10,2013-01-23 09:11:00,
2013-01-23 04:27:00,12.5,-2.0,30.15,South,180,1.0,6.0,52,0.00,,,0.00,0,weatherlink.com 1.10,2013-01-23 09:27:00,
2013-01-23 04:42:00,12.2,-3.0,30.15,South,186,3.0,5.0,52,0.00,,,0.00,0,weatherlink.com 1.10,2013-01-23 09:42:00,
2013-01-23 04:56:00,12.1,-2.0,30.16,South,177,1.0,3.0,53,0.00,,,0.00,0,weatherlink.com 1.10,2013-01-23 09:56:00,
2013-01-23 05:11:00,11.9,-2.0,30.16,South,184,2.0,5.0,53,0.00,,,0.00,0,weatherlink.com 1.10,2013-01-23 10:11:00,
2013-01-23 05:27:00,11.7,-2.0,30.16,SSW,193,1.0,5.0,54,0.00,,,0.00,0,weatherlink.com 1.10,2013-01-23 10:27:00,
2013-01-23 05:42:00,11.5,-2.0,30.17,SSW,193,1.0,6.0,54,0.00,,,0.00,0,weatherlink.com 1.10,2013-01-23 10:42:00,
2013-01-23 05:57:00,11.3,-2.0,30.17,SSW,193,0.0,3.0,55,0.00,,,0.00,0,weatherlink.com 1.10,2013-01-23 10:57:00,
2013-01-23 06:12:00,11.1,-2.0,30.17,South,173,3.0,4.0,56,0.00,,,0.00,0,weatherlink.com 1.10,2013-01-23 11:12:00,
2013-01-23 06:27:00,11.0,-2.0,30.17,South,177,0.0,3.0,56,0.00,,,0.00,0,weatherlink.com 1.10,2013-01-23 11:27:00,
2013-01-23 06:43:00,10.8,-2.0,30.18,South,177,0.0,4.0,56,0.00,,,0.00,0,weatherlink.com 1.10,2013-01-23 11:43:00,
2013-01-23 06:58:00,10.8,-2.0,30.18,SSW,198,2.0,5.0,56,0.00,,,0.00,0,weatherlink.com 1.10,2013-01-23 11:58:00,
2013-01-23 07:14:00,10.7,-2.0,30.18,South,188,0.0,4.0,57,0.00,,,0.00,7,weatherlink.com 1.10,2013-01-23 12:14:00,
2013-01-23 07:29:00,10.6,-2.0,30.18,South,188,1.0,4.0,57,0.00,,,0.00,11,weatherlink.com 1.10,2013-01-23 12:29:00,
2013-01-23 07:44:00,10.6,-2.0,30.18,SSW,200,3.0,6.0,58,0.00,,,0.00,21,weatherlink.com 1.10,2013-01-23 12:44:00,
2013-01-23 07:59:00,10.9,-1.0,30.19,SSW,196,4.0,7.0,58,0.00,,,0.00,49,weatherlink.com 1.10,2013-01-23 12:59:00,
2013-01-23 08:14:00,11.9,-1.0,30.20,SW,229,3.0,8.0,57,0.00,,,0.00,83,weatherlink.com 1.10,2013-01-23 13:14:00,
2013-01-23 08:29:00,12.4,-1.0,30.20,South,180,2.0,13.0,56,0.00,,,0.00,105,weatherlink.com 1.10,2013-01-23 13:29:00,
2013-01-23 08:44:00,13.1,0.0,30.19,SE,138,5.0,7.0,56,0.00,,,0.00,171,weatherlink.com 1.10,2013-01-23 13:44:00,
2013-01-23 08:59:00,13.5,0.0,30.19,South,186,2.0,12.0,55,0.00,,,0.00,67,weatherlink.com 1.10,2013-01-23 13:59:00,
2013-01-23 09:14:00,13.9,0.0,30.20,South,184,4.0,10.0,54,0.00,,,0.00,42,weatherlink.com 1.10,2013-01-23 14:14:00,
2013-01-23 09:30:00,14.7,0.0,30.20,South,169,4.0,11.0,53,0.00,,,0.00,44,weatherlink.com 1.10,2013-01-23 14:30:00,
2013-01-23 09:44:00,14.8,0.0,30.20,SSE,161,3.0,12.0,51,0.00,,,0.00,46,weatherlink.com 1.10,2013-01-23 14:44:00,
2013-01-23 10:00:00,15.7,-1.0,30.19,SW,219,4.0,11.0,49,0.00,,,0.00,47,weatherlink.com 1.10,2013-01-23 15:00:00,
2013-01-23 10:16:00,16.3,0.0,30.19,SSW,210,7.0,10.0,48,0.00,,,0.00,246,weatherlink.com 1.10,2013-01-23 15:16:00,
2013-01-23 10:31:00,16.5,-1.0,30.19,WSW,239,6.0,13.0,46,0.00,,,0.00,459,weatherlink.com 1.10,2013-01-23 15:31:00,
2013-01-23 10:45:00,17.7,0.0,30.19,SSW,211,3.0,8.0,45,0.00,,,0.00,471,weatherlink.com 1.10,2013-01-23 15:45:00,
2013-01-23 11:01:00,17.6,-2.0,30.18,SSW,205,1.0,10.0,42,0.00,,,0.00,489,weatherlink.com 1.10,2013-01-23 16:01:00,
2013-01-23 11:15:00,18.2,-1.0,30.17,SSW,196,4.0,12.0,43,0.00,,,0.00,524,weatherlink.com 1.10,2013-01-23 16:15:00,
2013-01-23 11:32:00,17.7,-2.0,30.16,WSW,247,6.0,13.0,42,0.00,,,0.00,552,weatherlink.com 1.10,2013-01-23 16:32:00,
2013-01-23 11:47:00,17.4,-2.0,30.16,SW,221,6.0,13.0,42,0.00,,,0.00,181,weatherlink.com 1.10,2013-01-23 16:47:00,
2013-01-23 12:01:00,17.8,-1.0,30.15,SSW,193,8.0,14.0,43,0.00,,,0.00,139,weatherlink.com 1.10,2013-01-23 17:01:00,
2013-01-23 12:16:00,17.9,-3.0,30.14,SSW,198,7.0,14.0,40,0.00,,,0.00,171,weatherlink.com 1.10,2013-01-23 17:16:00,
2013-01-23 12:31:00,17.5,-3.0,30.13,SSW,197,7.0,16.0,40,0.00,,,0.00,218,weatherlink.com 1.10,2013-01-23 17:31:00,
2013-01-23 12:46:00,17.9,-4.0,30.13,SSW,205,4.0,15.0,38,0.00,,,0.00,142,weatherlink.com 1.10,2013-01-23 17:46:00,
2013-01-23 13:02:00,17.6,-3.0,30.12,WSW,245,3.0,12.0,41,0.00,,,0.00,570,weatherlink.com 1.10,2013-01-23 18:02:00,
2013-01-23 13:17:00,19.1,-3.0,30.11,SSW,202,2.0,14.0,38,0.00,,,0.00,434,weatherlink.com 1.10,2013-01-23 18:17:00,
2013-01-23 13:32:00,19.2,-2.0,30.11,SSW,208,5.0,10.0,39,0.00,,,0.00,466,weatherlink.com 1.10,2013-01-23 18:32:00,
2013-01-23 13:48:00,19.1,-3.0,30.11,SW,225,3.0,18.0,37,0.00,,,0.00,338,weatherlink.com 1.10,2013-01-23 18:48:00,
2013-01-23 14:02:00,19.6,-3.0,30.11,SW,215,6.0,15.0,37,0.00,,,0.00,476,weatherlink.com 1.10,2013-01-23 19:02:00,
2013-01-23 14:18:00,19.2,-3.0,30.11,WSW,254,6.0,16.0,37,0.00,,,0.00,86,weatherlink.com 1.10,2013-01-23 19:18:00,
2013-01-23 14:33:00,18.3,-4.0,30.11,SSW,196,3.0,9.0,38,0.00,,,0.00,111,weatherlink.com 1.10,2013-01-23 19:33:00,
2013-01-23 14:48:00,18.1,-3.0,30.11,South,179,2.0,11.0,39,0.00,,,0.00,90,weatherlink.com 1.10,2013-01-23 19:48:00,
2013-01-23 15:05:00,19.0,-2.0,30.11,SSW,194,5.0,7.0,39,0.00,,,0.00,285,weatherlink.com 1.10,2013-01-23 20:05:00,
2013-01-23 15:19:00,19.8,-3.0,30.12,SW,234,9.0,15.0,37,0.00,,,0.00,111,weatherlink.com 1.10,2013-01-23 20:19:00,
2013-01-23 15:35:00,18.7,-3.0,30.12,SW,227,3.0,17.0,38,0.00,,,0.00,113,weatherlink.com 1.10,2013-01-23 20:35:00,
2013-01-23 15:50:00,19.1,-2.0,30.11,South,180,0.0,7.0,39,0.00,,,0.00,109,weatherlink.com 1.10,2013-01-23 20:50:00,
2013-01-23 16:04:00,18.9,-3.0,30.12,South,190,10.0,13.0,38,0.00,,,0.00,70,weatherlink.com 1.10,2013-01-23 21:04:00,
2013-01-23 16:20:00,18.7,-3.0,30.12,WSW,252,7.0,10.0,39,0.00,,,0.00,33,weatherlink.com 1.10,2013-01-23 21:20:00,
2013-01-23 16:35:00,18.7,-2.0,30.12,SW,215,4.0,10.0,40,0.00,,,0.00,23,weatherlink.com 1.10,2013-01-23 21:35:00,
2013-01-23 16:49:00,18.5,-3.0,30.12,SSW,213,3.0,9.0,39,0.00,,,0.00,7,weatherlink.com 1.10,2013-01-23 21:49:00,
2013-01-23 17:05:00,18.1,-4.0,30.13,WSW,238,3.0,11.0,38,0.00,,,0.00,0,weatherlink.com 1.10,2013-01-23 22:05:00,
2013-01-23 17:21:00,17.9,-2.0,30.14,SW,229,0.0,8.0,41,0.00,,,0.00,0,weatherlink.com 1.10,2013-01-23 22:21:00,
2013-01-23 17:35:00,17.4,-3.0,30.14,SSW,205,2.0,6.0,40,0.00,,,0.00,0,weatherlink.com 1.10,2013-01-23 22:35:00,
2013-01-23 17:51:00,17.1,-2.0,30.14,WSW,246,3.0,7.0,43,0.00,,,0.00,0,weatherlink.com 1.10,2013-01-23 22:51:00,
2013-01-23 18:06:00,16.8,-2.0,30.15,South,191,2.0,8.0,43,0.00,,,0.00,0,weatherlink.com 1.10,2013-01-23 23:06:00,
2013-01-23 18:21:00,16.6,-2.0,30.16,SSW,195,1.0,5.0,44,0.00,,,0.00,0,weatherlink.com 1.10,2013-01-23 23:21:00,
2013-01-23 18:37:00,16.3,-1.0,30.16,SW,234,2.0,5.0,46,0.00,,,0.00,0,weatherlink.com 1.10,2013-01-23 23:37:00,
2013-01-23 18:51:00,16.1,-1.0,30.16,SW,229,3.0,3.0,46,0.00,,,0.00,0,weatherlink.com 1.10,2013-01-23 23:51:00,
2013-01-23 19:07:00,16.1,-2.0,30.17,SSW,193,3.0,6.0,45,0.00,,,0.00,0,weatherlink.com 1.10,2013-01-24 00:07:00,
2013-01-23 19:22:00,16.1,-1.0,30.17,SSW,209,2.0,8.0,46,0.00,,,0.00,0,weatherlink.com 1.10,2013-01-24 00:22:00,
2013-01-23 19:37:00,15.8,-2.0,30.17,South,188,4.0,4.0,46,0.00,,,0.00,0,weatherlink.com 1.10,2013-01-24 00:37:00,
2013-01-23 19:53:00,15.8,-2.0,30.17,SSW,213,2.0,6.0,46,0.00,,,0.00,0,weatherlink.com 1.10,2013-01-24 00:53:00,
2013-01-23 20:08:00,15.6,-2.0,30.17,SSW,209,2.0,5.0,46,0.00,,,0.00,0,weatherlink.com 1.10,2013-01-24 01:08:00,
2013-01-23 20:23:00,15.5,-2.0,30.17,South,185,3.0,7.0,46,0.00,,,0.00,0,weatherlink.com 1.10,2013-01-24 01:23:00,
2013-01-23 20:38:00,15.3,-2.0,30.17,SSW,204,3.0,5.0,47,0.00,,,0.00,0,weatherlink.com 1.10,2013-01-24 01:38:00,
2013-01-23 20:52:00,15.2,-3.0,30.17,SSW,194,1.0,7.0,45,0.00,,,0.00,0,weatherlink.com 1.10,2013-01-24 01:52:00,
2013-01-23 21:08:00,15.0,-3.0,30.17,SW,219,3.0,7.0,45,0.00,,,0.00,0,weatherlink.com 1.10,2013-01-24 02:08:00,
2013-01-23 21:24:00,14.6,-2.0,30.17,SSW,202,1.0,3.0,47,0.00,,,0.00,0,weatherlink.com 1.10,2013-01-24 02:24:00,
2013-01-23 21:39:00,14.5,-3.0,30.17,SSW,200,2.0,7.0,47,0.00,,,0.00,0,weatherlink.com 1.10,2013-01-24 02:39:00,
2013-01-23 21:55:00,13.9,-3.0,30.17,SSW,196,2.0,5.0,47,0.00,,,0.00,0,weatherlink.com 1.10,2013-01-24 02:55:00,
2013-01-23 22:09:00,13.5,-3.0,30.18,South,182,1.0,5.0,48,0.00,,,0.00,0,weatherlink.com 1.10,2013-01-24 03:09:00,
2013-01-23 22:25:00,13.2,-3.0,30.18,SW,223,3.0,7.0,48,0.00,,,0.00,0,weatherlink.com 1.10,2013-01-24 03:25:00,
2013-01-23 22:40:00,12.9,-4.0,30.18,South,174,1.0,6.0,48,0.00,,,0.00,0,weatherlink.com 1.10,2013-01-24 03:40:00,
2013-01-23 22:55:00,12.6,-4.0,30.18,South,175,2.0,4.0,48,0.00,,,0.00,0,weatherlink.com 1.10,2013-01-24 03:55:00,
2013-01-23 23:10:00,12.4,-4.0,30.18,SW,221,3.0,4.0,49,0.00,,,0.00,0,weatherlink.com 1.10,2013-01-24 04:10:00,
2013-01-23 23:24:00,12.4,-3.0,30.18,SW,232,1.0,4.0,50,0.00,,,0.00,0,weatherlink.com 1.10,2013-01-24 04:24:00,
2013-01-23 23:40:00,12.1,-4.0,30.17,SW,232,2.0,4.0,49,0.00,,,0.00,0,weatherlink.com 1.10,2013-01-24 04:40:00,
2013-01-23 23:55:00,11.5,-4.0,30.17,SW,232,0.0,3.0,51,0.00,,,0.00,0,weatherlink.com 1.10,2013-01-24 04:55:00,